Lake George, Michigan
Current Conditions -  °F | °C
As of 11:18 PM on Tuesday 21 Oct 2014 (Local Time) from KMOP Reporting Station
Clear Clear  
Wind Chill: 33°   Ceiling: Unl
Heat Index: 37°   Visibility: 10mi
Dew Point: 30°   Wind: 5mph
Humidity: 77%   Direction: 10°N
Pressure: 30.28"   Gusts: NA
Location:  43.96°N, 84.95°W
Report Text: KMOP 220318Z AUTO 01004KT 10SM CLR 03/M01 A3028 RMK AO2 T00261010
Loading
Personal Weather Stations






























Interactive Weather Map
Tropical Storm Tracking
New forecast layout! Learn more

10-Day Weather Forecast

Advertisements
Track Severe Weather on mobile